sensor_id;sensor_type;location;lat;lon;timestamp;P1;durP1;ratioP1;P2;durP2;ratioP2
25922;SDS011;13725;51.170;4.442;2023-03-23T00:02:28;4.75;;;3.00;;
25922;SDS011;13725;51.170;4.442;2023-03-23T00:04:57;5.07;;;3.10;;
25922;SDS011;13725;51.170;4.442;2023-03-23T00:07:25;6.82;;;3.40;;
25922;SDS011;13725;51.170;4.442;2023-03-23T00:09:53;5.05;;;3.45;;
25922;SDS011;13725;51.170;4.442;2023-03-23T00:12:23;4.88;;;3.00;;
25922;SDS011;13725;51.170;4.442;2023-03-23T00:14:59;6.00;;;3.60;;
25922;SDS011;13725;51.170;4.442;2023-03-23T00:17:30;7.93;;;3.53;;
25922;SDS011;13725;51.170;4.442;2023-03-23T00:20:00;8.15;;;3.92;;
25922;SDS011;13725;51.170;4.442;2023-03-23T00:22:30;5.43;;;3.80;;
25922;SDS011;13725;51.170;4.442;2023-03-23T00:24:56;7.65;;;3.88;;
25922;SDS011;13725;51.170;4.442;2023-03-23T00:27:22;8.95;;;4.18;;
25922;SDS011;13725;51.170;4.442;2023-03-23T00:29:48;4.53;;;3.67;;
25922;SDS011;13725;51.170;4.442;2023-03-23T00:32:18;6.70;;;3.47;;
25922;SDS011;13725;51.170;4.442;2023-03-23T00:34:45;6.20;;;3.72;;
25922;SDS011;13725;51.170;4.442;2023-03-23T00:37:13;7.03;;;3.55;;
25922;SDS011;13725;51.170;4.442;2023-03-23T00:39:41;8.15;;;3.80;;
25922;SDS011;13725;51.170;4.442;2023-03-23T00:42:10;7.00;;;3.63;;
25922;SDS011;13725;51.170;4.442;2023-03-23T00:44:38;5.82;;;3.72;;
25922;SDS011;13725;51.170;4.442;2023-03-23T00:47:05;7.13;;;3.85;;
25922;SDS011;13725;51.170;4.442;2023-03-23T00:49:33;7.60;;;3.90;;
25922;SDS011;13725;51.170;4.442;2023-03-23T00:52:00;12.32;;;5.07;;
25922;SDS011;13725;51.170;4.442;2023-03-23T00:54:26;6.65;;;3.60;;
25922;SDS011;13725;51.170;4.442;2023-03-23T00:56:52;5.07;;;3.58;;
25922;SDS011;13725;51.170;4.442;2023-03-23T00:59:18;6.95;;;3.85;;
25922;SDS011;13725;51.170;4.442;2023-03-23T01:01:44;9.93;;;3.85;;
25922;SDS011;13725;51.170;4.442;2023-03-23T01:04:12;5.55;;;3.95;;
25922;SDS011;13725;51.170;4.442;2023-03-23T01:06:40;4.13;;;3.70;;
25922;SDS011;13725;51.170;4.442;2023-03-23T01:09:09;6.50;;;3.95;;
25922;SDS011;13725;51.170;4.442;2023-03-23T01:11:39;6.97;;;3.55;;
25922;SDS011;13725;51.170;4.442;2023-03-23T01:14:06;7.13;;;3.80;;
25922;SDS011;13725;51.170;4.442;2023-03-23T01:16:31;5.80;;;3.58;;
25922;SDS011;13725;51.170;4.442;2023-03-23T01:18:57;4.80;;;3.35;;
25922;SDS011;13725;51.170;4.442;2023-03-23T01:21:23;6.85;;;3.70;;
25922;SDS011;13725;51.170;4.442;2023-03-23T01:23:50;5.93;;;3.60;;
25922;SDS011;13725;51.170;4.442;2023-03-23T01:26:17;6.95;;;3.55;;
25922;SDS011;13725;51.170;4.442;2023-03-23T01:28:44;7.30;;;3.33;;
25922;SDS011;13725;51.170;4.442;2023-03-23T01:31:11;6.32;;;3.00;;
25922;SDS011;13725;51.170;4.442;2023-03-23T01:33:39;7.95;;;4.60;;
25922;SDS011;13725;51.170;4.442;2023-03-23T01:36:07;4.68;;;2.90;;
25922;SDS011;13725;51.170;4.442;2023-03-23T01:38:37;7.57;;;3.72;;
25922;SDS011;13725;51.170;4.442;2023-03-23T01:41:03;4.32;;;3.08;;
25922;SDS011;13725;51.170;4.442;2023-03-23T01:43:29;7.72;;;3.10;;
25922;SDS011;13725;51.170;4.442;2023-03-23T01:45:55;5.45;;;3.20;;
25922;SDS011;13725;51.170;4.442;2023-03-23T01:53:32;5.47;;;3.13;;
25922;SDS011;13725;51.170;4.442;2023-03-23T01:56:03;5.32;;;2.72;;
25922;SDS011;13725;51.170;4.442;2023-03-23T01:58:31;5.60;;;3.20;;
25922;SDS011;13725;51.170;4.442;2023-03-23T02:01:02;4.18;;;3.22;;
25922;SDS011;13725;51.170;4.442;2023-03-23T02:03:31;4.75;;;2.92;;
25922;SDS011;13725;51.170;4.442;2023-03-23T02:05:59;6.68;;;3.10;;
25922;SDS011;13725;51.170;4.442;2023-03-23T02:08:36;4.60;;;3.05;;
25922;SDS011;13725;51.170;4.442;2023-03-23T02:11:39;6.32;;;2.90;;
25922;SDS011;13725;51.170;4.442;2023-03-23T02:13:58;4.60;;;3.05;;
25922;SDS011;13725;51.170;4.442;2023-03-23T02:16:30;8.13;;;3.08;;
25922;SDS011;13725;51.170;4.442;2023-03-23T02:26:56;2.88;;;2.47;;
25922;SDS011;13725;51.170;4.442;2023-03-23T02:29:32;4.35;;;2.70;;
25922;SDS011;13725;51.170;4.442;2023-03-23T02:32:35;7.13;;;2.75;;
25922;SDS011;13725;51.170;4.442;2023-03-23T02:35:12;4.30;;;3.10;;
25922;SDS011;13725;51.170;4.442;2023-03-23T02:37:57;4.13;;;2.33;;
25922;SDS011;13725;51.170;4.442;2023-03-23T02:40:47;5.00;;;2.40;;
25922;SDS011;13725;51.170;4.442;2023-03-23T02:43:15;2.88;;;2.28;;
25922;SDS011;13725;51.170;4.442;2023-03-23T02:45:45;4.55;;;2.03;;
25922;SDS011;13725;51.170;4.442;2023-03-23T02:48:12;3.92;;;2.10;;
25922;SDS011;13725;51.170;4.442;2023-03-23T02:50:42;6.35;;;2.58;;
25922;SDS011;13725;51.170;4.442;2023-03-23T02:53:11;5.88;;;2.10;;
25922;SDS011;13725;51.170;4.442;2023-03-23T02:55:41;6.32;;;2.08;;
25922;SDS011;13725;51.170;4.442;2023-03-23T02:58:12;8.55;;;2.05;;
25922;SDS011;13725;51.170;4.442;2023-03-23T03:00:40;4.40;;;1.80;;
25922;SDS011;13725;51.170;4.442;2023-03-23T03:03:08;4.25;;;1.70;;
25922;SDS011;13725;51.170;4.442;2023-03-23T03:05:53;3.72;;;1.30;;
25922;SDS011;13725;51.170;4.442;2023-03-23T03:08:37;6.85;;;1.77;;
25922;SDS011;13725;51.170;4.442;2023-03-23T03:11:19;5.72;;;1.42;;
25922;SDS011;13725;51.170;4.442;2023-03-23T03:13:55;4.10;;;1.67;;
25922;SDS011;13725;51.170;4.442;2023-03-23T03:16:34;5.57;;;1.13;;
25922;SDS011;13725;51.170;4.442;2023-03-23T03:19:29;6.25;;;1.77;;
25922;SDS011;13725;51.170;4.442;2023-03-23T03:21:57;4.88;;;1.30;;
25922;SDS011;13725;51.170;4.442;2023-03-23T03:24:35;5.35;;;1.90;;
25922;SDS011;13725;51.170;4.442;2023-03-23T03:27:03;3.35;;;1.45;;
25922;SDS011;13725;51.170;4.442;2023-03-23T03:29:41;4.95;;;1.30;;
25922;SDS011;13725;51.170;4.442;2023-03-23T03:32:14;11.52;;;2.65;;
25922;SDS011;13725;51.170;4.442;2023-03-23T03:34:44;4.10;;;1.45;;
25922;SDS011;13725;51.170;4.442;2023-03-23T03:37:10;6.97;;;1.35;;
25922;SDS011;13725;51.170;4.442;2023-03-23T03:39:37;7.75;;;2.60;;
25922;SDS011;13725;51.170;4.442;2023-03-23T03:42:04;6.07;;;1.40;;
25922;SDS011;13725;51.170;4.442;2023-03-23T03:44:31;6.65;;;1.45;;
25922;SDS011;13725;51.170;4.442;2023-03-23T03:46:57;8.68;;;2.10;;
25922;SDS011;13725;51.170;4.442;2023-03-23T03:49:23;6.85;;;1.27;;
25922;SDS011;13725;51.170;4.442;2023-03-23T03:51:49;4.43;;;1.33;;
25922;SDS011;13725;51.170;4.442;2023-03-23T03:54:20;7.50;;;1.58;;
25922;SDS011;13725;51.170;4.442;2023-03-23T03:56:46;5.20;;;1.52;;
25922;SDS011;13725;51.170;4.442;2023-03-23T03:59:40;6.55;;;1.83;;
25922;SDS011;13725;51.170;4.442;2023-03-23T04:02:35;6.15;;;1.35;;
25922;SDS011;13725;51.170;4.442;2023-03-23T04:05:01;6.60;;;1.45;;
25922;SDS011;13725;51.170;4.442;2023-03-23T04:07:28;5.53;;;1.85;;
25922;SDS011;13725;51.170;4.442;2023-03-23T04:09:54;11.50;;;1.70;;
25922;SDS011;13725;51.170;4.442;2023-03-23T04:12:20;5.40;;;1.15;;
25922;SDS011;13725;51.170;4.442;2023-03-23T04:15:08;9.43;;;2.38;;
25922;SDS011;13725;51.170;4.442;2023-03-23T04:17:35;5.85;;;1.40;;
25922;SDS011;13725;51.170;4.442;2023-03-23T04:20:02;9.52;;;1.50;;
25922;SDS011;13725;51.170;4.442;2023-03-23T04:22:37;5.50;;;1.60;;
25922;SDS011;13725;51.170;4.442;2023-03-23T04:25:02;7.78;;;1.60;;
25922;SDS011;13725;51.170;4.442;2023-03-23T04:27:33;5.80;;;1.42;;
25922;SDS011;13725;51.170;4.442;2023-03-23T04:30:01;7.63;;;2.10;;
25922;SDS011;13725;51.170;4.442;2023-03-23T04:32:49;8.48;;;1.70;;
25922;SDS011;13725;51.170;4.442;2023-03-23T04:35:21;4.75;;;1.80;;
25922;SDS011;13725;51.170;4.442;2023-03-23T04:38:01;10.48;;;1.90;;
25922;SDS011;13725;51.170;4.442;2023-03-23T04:40:27;5.82;;;1.67;;
25922;SDS011;13725;51.170;4.442;2023-03-23T04:43:05;9.30;;;1.98;;
25922;SDS011;13725;51.170;4.442;2023-03-23T04:45:55;7.78;;;1.83;;
25922;SDS011;13725;51.170;4.442;2023-03-23T04:48:23;13.48;;;2.25;;
25922;SDS011;13725;51.170;4.442;2023-03-23T04:51:12;7.88;;;2.00;;
25922;SDS011;13725;51.170;4.442;2023-03-23T04:53:40;5.88;;;1.65;;
25922;SDS011;13725;51.170;4.442;2023-03-23T04:56:07;6.78;;;1.63;;
25922;SDS011;13725;51.170;4.442;2023-03-23T04:58:39;6.50;;;1.73;;
25922;SDS011;13725;51.170;4.442;2023-03-23T05:01:13;9.80;;;2.53;;
25922;SDS011;13725;51.170;4.442;2023-03-23T05:03:47;8.07;;;2.35;;
25922;SDS011;13725;51.170;4.442;2023-03-23T05:06:14;10.18;;;1.60;;
25922;SDS011;13725;51.170;4.442;2023-03-23T05:08:40;8.80;;;1.77;;
25922;SDS011;13725;51.170;4.442;2023-03-23T05:11:06;11.27;;;2.17;;
25922;SDS011;13725;51.170;4.442;2023-03-23T05:13:36;10.13;;;2.15;;
25922;SDS011;13725;51.170;4.442;2023-03-23T05:16:03;10.30;;;1.70;;
25922;SDS011;13725;51.170;4.442;2023-03-23T05:18:31;8.52;;;2.67;;
25922;SDS011;13725;51.170;4.442;2023-03-23T05:20:59;5.13;;;1.55;;
25922;SDS011;13725;51.170;4.442;2023-03-23T05:23:27;6.53;;;1.80;;
25922;SDS011;13725;51.170;4.442;2023-03-23T05:26:01;10.93;;;2.15;;
25922;SDS011;13725;51.170;4.442;2023-03-23T05:28:28;4.05;;;1.33;;
25922;SDS011;13725;51.170;4.442;2023-03-23T05:31:19;11.13;;;1.70;;
25922;SDS011;13725;51.170;4.442;2023-03-23T05:33:44;7.95;;;1.70;;
25922;SDS011;13725;51.170;4.442;2023-03-23T05:36:15;12.60;;;2.10;;
25922;SDS011;13725;51.170;4.442;2023-03-23T05:38:59;7.10;;;1.75;;
25922;SDS011;13725;51.170;4.442;2023-03-23T05:41:41;9.10;;;1.55;;
25922;SDS011;13725;51.170;4.442;2023-03-23T05:44:06;6.90;;;1.88;;
25922;SDS011;13725;51.170;4.442;2023-03-23T05:46:44;11.45;;;1.52;;
25922;SDS011;13725;51.170;4.442;2023-03-23T05:49:10;7.68;;;1.55;;
25922;SDS011;13725;51.170;4.442;2023-03-23T05:51:39;5.60;;;1.30;;
25922;SDS011;13725;51.170;4.442;2023-03-23T05:54:05;7.45;;;1.25;;
25922;SDS011;13725;51.170;4.442;2023-03-23T05:56:31;5.55;;;1.80;;
25922;SDS011;13725;51.170;4.442;2023-03-23T05:59:21;6.80;;;1.45;;
25922;SDS011;13725;51.170;4.442;2023-03-23T06:01:51;9.45;;;1.77;;
25922;SDS011;13725;51.170;4.442;2023-03-23T06:04:19;7.35;;;2.03;;
25922;SDS011;13725;51.170;4.442;2023-03-23T06:07:01;10.05;;;2.05;;
25922;SDS011;13725;51.170;4.442;2023-03-23T06:09:27;9.75;;;2.10;;
25922;SDS011;13725;51.170;4.442;2023-03-23T06:12:02;11.65;;;2.20;;
25922;SDS011;13725;51.170;4.442;2023-03-23T06:14:59;6.40;;;1.85;;
25922;SDS011;13725;51.170;4.442;2023-03-23T06:17:40;12.40;;;2.00;;
25922;SDS011;13725;51.170;4.442;2023-03-23T06:20:06;8.00;;;2.47;;
25922;SDS011;13725;51.170;4.442;2023-03-23T06:22:34;9.43;;;2.45;;
25922;SDS011;13725;51.170;4.442;2023-03-23T06:25:09;11.38;;;2.38;;
25922;SDS011;13725;51.170;4.442;2023-03-23T06:27:41;7.07;;;2.40;;
25922;SDS011;13725;51.170;4.442;2023-03-23T06:30:07;11.77;;;1.98;;
25922;SDS011;13725;51.170;4.442;2023-03-23T06:32:34;15.70;;;3.42;;
25922;SDS011;13725;51.170;4.442;2023-03-23T06:35:01;9.18;;;1.92;;
25922;SDS011;13725;51.170;4.442;2023-03-23T06:37:47;9.55;;;3.10;;
25922;SDS011;13725;51.170;4.442;2023-03-23T06:40:18;7.75;;;2.30;;
25922;SDS011;13725;51.170;4.442;2023-03-23T06:42:53;7.45;;;1.52;;
25922;SDS011;13725;51.170;4.442;2023-03-23T06:45:38;6.80;;;2.38;;
25922;SDS011;13725;51.170;4.442;2023-03-23T06:48:26;6.68;;;1.63;;
25922;SDS011;13725;51.170;4.442;2023-03-23T06:50:52;5.82;;;1.23;;
25922;SDS011;13725;51.170;4.442;2023-03-23T06:53:19;5.28;;;1.42;;
25922;SDS011;13725;51.170;4.442;2023-03-23T06:55:49;5.93;;;1.23;;
25922;SDS011;13725;51.170;4.442;2023-03-23T06:58:15;5.18;;;1.42;;
25922;SDS011;13725;51.170;4.442;2023-03-23T07:00:41;7.13;;;1.50;;
25922;SDS011;13725;51.170;4.442;2023-03-23T07:03:10;10.15;;;2.25;;
25922;SDS011;13725;51.170;4.442;2023-03-23T07:05:37;7.93;;;2.38;;
25922;SDS011;13725;51.170;4.442;2023-03-23T07:08:04;8.75;;;2.25;;
25922;SDS011;13725;51.170;4.442;2023-03-23T07:10:34;5.22;;;2.30;;
25922;SDS011;13725;51.170;4.442;2023-03-23T07:13:01;5.82;;;1.88;;
25922;SDS011;13725;51.170;4.442;2023-03-23T07:15:37;7.15;;;2.10;;
25922;SDS011;13725;51.170;4.442;2023-03-23T07:18:04;5.60;;;1.33;;
25922;SDS011;13725;51.170;4.442;2023-03-23T07:20:36;5.90;;;1.90;;
25922;SDS011;13725;51.170;4.442;2023-03-23T07:23:02;9.02;;;2.13;;
25922;SDS011;13725;51.170;4.442;2023-03-23T07:25:39;6.47;;;2.40;;
25922;SDS011;13725;51.170;4.442;2023-03-23T07:28:07;6.38;;;1.98;;
25922;SDS011;13725;51.170;4.442;2023-03-23T07:30:33;4.45;;;1.30;;
25922;SDS011;13725;51.170;4.442;2023-03-23T07:32:59;4.97;;;1.42;;
25922;SDS011;13725;51.170;4.442;2023-03-23T07:35:28;7.20;;;1.40;;
25922;SDS011;13725;51.170;4.442;2023-03-23T07:38:08;2.92;;;1.10;;
25922;SDS011;13725;51.170;4.442;2023-03-23T07:40:35;10.23;;;1.50;;
25922;SDS011;13725;51.170;4.442;2023-03-23T07:43:06;9.48;;;1.80;;
25922;SDS011;13725;51.170;4.442;2023-03-23T07:45:51;5.93;;;2.20;;
25922;SDS011;13725;51.170;4.442;2023-03-23T07:48:17;3.85;;;1.60;;
25922;SDS011;13725;51.170;4.442;2023-03-23T07:50:44;7.05;;;2.40;;
25922;SDS011;13725;51.170;4.442;2023-03-23T07:53:11;5.68;;;1.15;;
25922;SDS011;13725;51.170;4.442;2023-03-23T07:55:39;8.05;;;1.20;;
25922;SDS011;13725;51.170;4.442;2023-03-23T07:58:27;4.10;;;1.50;;
25922;SDS011;13725;51.170;4.442;2023-03-23T08:00:55;7.32;;;2.50;;
25922;SDS011;13725;51.170;4.442;2023-03-23T08:03:24;8.45;;;2.35;;
25922;SDS011;13725;51.170;4.442;2023-03-23T08:06:13;4.43;;;2.10;;
25922;SDS011;13725;51.170;4.442;2023-03-23T08:08:43;7.65;;;2.67;;
25922;SDS011;13725;51.170;4.442;2023-03-23T08:11:47;4.57;;;1.60;;
25922;SDS011;13725;51.170;4.442;2023-03-23T08:14:31;9.50;;;1.42;;
25922;SDS011;13725;51.170;4.442;2023-03-23T08:17:33;3.47;;;1.17;;
25922;SDS011;13725;51.170;4.442;2023-03-23T08:20:18;4.65;;;1.35;;
25922;SDS011;13725;51.170;4.442;2023-03-23T08:23:03;9.75;;;1.20;;
25922;SDS011;13725;51.170;4.442;2023-03-23T08:25:58;5.25;;;1.05;;
25922;SDS011;13725;51.170;4.442;2023-03-23T08:28:40;5.95;;;1.00;;
25922;SDS011;13725;51.170;4.442;2023-03-23T08:31:27;4.15;;;0.75;;
25922;SDS011;13725;51.170;4.442;2023-03-23T08:34:04;7.03;;;1.27;;
25922;SDS011;13725;51.170;4.442;2023-03-23T08:37:00;5.75;;;1.48;;
25922;SDS011;13725;51.170;4.442;2023-03-23T08:39:45;4.57;;;0.90;;
25922;SDS011;13725;51.170;4.442;2023-03-23T08:42:41;4.20;;;1.20;;
25922;SDS011;13725;51.170;4.442;2023-03-23T08:45:34;6.00;;;1.83;;
25922;SDS011;13725;51.170;4.442;2023-03-23T08:48:21;3.47;;;1.60;;
25922;SDS011;13725;51.170;4.442;2023-03-23T08:50:59;6.00;;;0.93;;
25922;SDS011;13725;51.170;4.442;2023-03-23T08:53:47;3.45;;;0.90;;
25922;SDS011;13725;51.170;4.442;2023-03-23T08:56:45;6.13;;;1.15;;
25922;SDS011;13725;51.170;4.442;2023-03-23T08:59:30;4.82;;;1.02;;
25922;SDS011;13725;51.170;4.442;2023-03-23T09:02:03;8.00;;;1.38;;
25922;SDS011;13725;51.170;4.442;2023-03-23T09:04:54;1.90;;;0.75;;
25922;SDS011;13725;51.170;4.442;2023-03-23T09:07:20;5.70;;;1.10;;
25922;SDS011;13725;51.170;4.442;2023-03-23T09:09:46;2.70;;;1.02;;
25922;SDS011;13725;51.170;4.442;2023-03-23T09:12:11;5.57;;;1.15;;
25922;SDS011;13725;51.170;4.442;2023-03-23T09:14:37;5.90;;;1.40;;
25922;SDS011;13725;51.170;4.442;2023-03-23T09:17:04;5.22;;;1.48;;
25922;SDS011;13725;51.170;4.442;2023-03-23T09:19:31;3.55;;;1.13;;
25922;SDS011;13725;51.170;4.442;2023-03-23T09:21:59;6.55;;;1.70;;
25922;SDS011;13725;51.170;4.442;2023-03-23T09:24:25;5.05;;;1.20;;
25922;SDS011;13725;51.170;4.442;2023-03-23T09:26:51;4.00;;;1.10;;
25922;SDS011;13725;51.170;4.442;2023-03-23T09:29:17;6.10;;;1.25;;
25922;SDS011;13725;51.170;4.442;2023-03-23T09:31:43;4.20;;;1.00;;
25922;SDS011;13725;51.170;4.442;2023-03-23T09:34:11;2.30;;;0.95;;
25922;SDS011;13725;51.170;4.442;2023-03-23T09:36:38;3.78;;;1.10;;
25922;SDS011;13725;51.170;4.442;2023-03-23T09:39:07;5.10;;;1.60;;
25922;SDS011;13725;51.170;4.442;2023-03-23T09:49:46;5.28;;;1.45;;
25922;SDS011;13725;51.170;4.442;2023-03-23T09:52:18;4.70;;;1.15;;
25922;SDS011;13725;51.170;4.442;2023-03-23T09:54:51;5.80;;;1.33;;
25922;SDS011;13725;51.170;4.442;2023-03-23T09:57:22;4.70;;;1.15;;
25922;SDS011;13725;51.170;4.442;2023-03-23T10:05:39;5.07;;;1.25;;
25922;SDS011;13725;51.170;4.442;2023-03-23T10:08:19;7.15;;;1.33;;
25922;SDS011;13725;51.170;4.442;2023-03-23T10:16:20;2.55;;;1.27;;
25922;SDS011;13725;51.170;4.442;2023-03-23T10:21:25;5.57;;;1.77;;
25922;SDS011;13725;51.170;4.442;2023-03-23T10:24:02;4.20;;;1.08;;
25922;SDS011;13725;51.170;4.442;2023-03-23T10:26:48;4.45;;;1.13;;
25922;SDS011;13725;51.170;4.442;2023-03-23T10:29:37;2.40;;;1.10;;
25922;SDS011;13725;51.170;4.442;2023-03-23T10:32:13;6.82;;;1.63;;
25922;SDS011;13725;51.170;4.442;2023-03-23T10:34:50;5.32;;;1.67;;
25922;SDS011;13725;51.170;4.442;2023-03-23T10:37:27;7.57;;;1.92;;
25922;SDS011;13725;51.170;4.442;2023-03-23T10:40:04;5.18;;;1.10;;
25922;SDS011;13725;51.170;4.442;2023-03-23T10:42:36;3.22;;;1.40;;
25922;SDS011;13725;51.170;4.442;2023-03-23T10:50:36;5.80;;;1.50;;
25922;SDS011;13725;51.170;4.442;2023-03-23T10:53:11;5.53;;;1.35;;
25922;SDS011;13725;51.170;4.442;2023-03-23T10:55:58;6.68;;;1.65;;
25922;SDS011;13725;51.170;4.442;2023-03-23T10:58:31;6.30;;;1.58;;
25922;SDS011;13725;51.170;4.442;2023-03-23T11:01:00;6.03;;;1.40;;
25922;SDS011;13725;51.170;4.442;2023-03-23T11:06:03;7.03;;;1.83;;
25922;SDS011;13725;51.170;4.442;2023-03-23T11:08:33;5.45;;;1.90;;
25922;SDS011;13725;51.170;4.442;2023-03-23T11:13:45;6.90;;;1.88;;
25922;SDS011;13725;51.170;4.442;2023-03-23T11:19:00;5.25;;;1.73;;
25922;SDS011;13725;51.170;4.442;2023-03-23T11:21:38;4.80;;;1.70;;
25922;SDS011;13725;51.170;4.442;2023-03-23T11:24:05;5.10;;;1.40;;
25922;SDS011;13725;51.170;4.442;2023-03-23T11:26:33;8.68;;;2.17;;
25922;SDS011;13725;51.170;4.442;2023-03-23T11:29:09;4.57;;;1.30;;
25922;SDS011;13725;51.170;4.442;2023-03-23T11:31:43;7.03;;;1.85;;
25922;SDS011;13725;51.170;4.442;2023-03-23T11:34:15;9.30;;;1.90;;
25922;SDS011;13725;51.170;4.442;2023-03-23T11:36:47;5.22;;;1.50;;
25922;SDS011;13725;51.170;4.442;2023-03-23T11:39:27;7.53;;;1.87;;
25922;SDS011;13725;51.170;4.442;2023-03-23T11:41:53;7.75;;;2.00;;
25922;SDS011;13725;51.170;4.442;2023-03-23T11:44:22;7.10;;;2.05;;
25922;SDS011;13725;51.170;4.442;2023-03-23T11:47:36;8.13;;;1.88;;
25922;SDS011;13725;51.170;4.442;2023-03-23T11:50:04;6.45;;;2.00;;
25922;SDS011;13725;51.170;4.442;2023-03-23T11:52:41;5.35;;;1.60;;
25922;SDS011;13725;51.170;4.442;2023-03-23T11:55:15;7.90;;;1.90;;
25922;SDS011;13725;51.170;4.442;2023-03-23T11:57:48;5.97;;;1.98;;
25922;SDS011;13725;51.170;4.442;2023-03-23T12:00:15;7.25;;;1.63;;
25922;SDS011;13725;51.170;4.442;2023-03-23T12:02:52;8.73;;;2.42;;
25922;SDS011;13725;51.170;4.442;2023-03-23T12:05:49;9.15;;;2.08;;
25922;SDS011;13725;51.170;4.442;2023-03-23T12:14:06;8.55;;;2.17;;
25922;SDS011;13725;51.170;4.442;2023-03-23T12:32:24;8.70;;;2.95;;
25922;SDS011;13725;51.170;4.442;2023-03-23T12:43:38;10.50;;;2.00;;
25922;SDS011;13725;51.170;4.442;2023-03-23T12:46:32;11.82;;;2.85;;
25922;SDS011;13725;51.170;4.442;2023-03-23T12:49:32;5.93;;;1.65;;
25922;SDS011;13725;51.170;4.442;2023-03-23T12:52:14;3.85;;;1.45;;
25922;SDS011;13725;51.170;4.442;2023-03-23T12:54:51;9.38;;;1.52;;
25922;SDS011;13725;51.170;4.442;2023-03-23T13:00:22;7.07;;;1.95;;
25922;SDS011;13725;51.170;4.442;2023-03-23T13:03:01;8.65;;;1.80;;
25922;SDS011;13725;51.170;4.442;2023-03-23T13:05:41;10.35;;;2.17;;
25922;SDS011;13725;51.170;4.442;2023-03-23T13:08:21;8.63;;;1.80;;
25922;SDS011;13725;51.170;4.442;2023-03-23T13:10:53;8.68;;;1.90;;
25922;SDS011;13725;51.170;4.442;2023-03-23T13:13:23;7.05;;;1.58;;
25922;SDS011;13725;51.170;4.442;2023-03-23T13:16:11;8.60;;;1.55;;
25922;SDS011;13725;51.170;4.442;2023-03-23T13:18:49;9.23;;;1.80;;
25922;SDS011;13725;51.170;4.442;2023-03-23T13:24:08;8.60;;;1.73;;
25922;SDS011;13725;51.170;4.442;2023-03-23T13:26:40;8.88;;;1.83;;
25922;SDS011;13725;51.170;4.442;2023-03-23T13:29:14;7.07;;;2.05;;
25922;SDS011;13725;51.170;4.442;2023-03-23T13:31:45;4.90;;;1.33;;
25922;SDS011;13725;51.170;4.442;2023-03-23T13:34:25;7.60;;;1.40;;
25922;SDS011;13725;51.170;4.442;2023-03-23T13:36:59;7.25;;;1.65;;
25922;SDS011;13725;51.170;4.442;2023-03-23T13:39:31;10.77;;;1.50;;
25922;SDS011;13725;51.170;4.442;2023-03-23T13:44:25;7.85;;;1.70;;
25922;SDS011;13725;51.170;4.442;2023-03-23T13:46:56;10.75;;;2.58;;
25922;SDS011;13725;51.170;4.442;2023-03-23T13:49:31;9.55;;;2.50;;
25922;SDS011;13725;51.170;4.442;2023-03-23T14:08:20;6.60;;;2.03;;
25922;SDS011;13725;51.170;4.442;2023-03-23T14:13:43;7.00;;;1.90;;
25922;SDS011;13725;51.170;4.442;2023-03-23T14:16:25;9.90;;;2.17;;
25922;SDS011;13725;51.170;4.442;2023-03-23T14:21:56;7.10;;;1.60;;
25922;SDS011;13725;51.170;4.442;2023-03-23T14:24:27;12.45;;;2.50;;
25922;SDS011;13725;51.170;4.442;2023-03-23T14:29:38;11.23;;;1.90;;
25922;SDS011;13725;51.170;4.442;2023-03-23T14:32:09;7.50;;;1.75;;
25922;SDS011;13725;51.170;4.442;2023-03-23T14:34:40;8.20;;;2.20;;
25922;SDS011;13725;51.170;4.442;2023-03-23T14:37:09;6.20;;;1.60;;
25922;SDS011;13725;51.170;4.442;2023-03-23T14:39:38;9.02;;;2.50;;
25922;SDS011;13725;51.170;4.442;2023-03-23T14:42:10;11.63;;;2.92;;
25922;SDS011;13725;51.170;4.442;2023-03-23T14:44:42;5.05;;;2.22;;
25922;SDS011;13725;51.170;4.442;2023-03-23T14:47:15;11.07;;;3.22;;
25922;SDS011;13725;51.170;4.442;2023-03-23T14:49:47;7.07;;;2.20;;
25922;SDS011;13725;51.170;4.442;2023-03-23T14:52:18;12.38;;;2.17;;
25922;SDS011;13725;51.170;4.442;2023-03-23T14:54:48;7.85;;;2.03;;
25922;SDS011;13725;51.170;4.442;2023-03-23T14:57:15;8.55;;;2.10;;
25922;SDS011;13725;51.170;4.442;2023-03-23T14:59:46;13.55;;;2.65;;
25922;SDS011;13725;51.170;4.442;2023-03-23T15:02:17;11.20;;;2.55;;
25922;SDS011;13725;51.170;4.442;2023-03-23T15:05:15;12.23;;;2.80;;
25922;SDS011;13725;51.170;4.442;2023-03-23T15:08:05;7.75;;;2.00;;
25922;SDS011;13725;51.170;4.442;2023-03-23T15:10:33;6.57;;;1.88;;
25922;SDS011;13725;51.170;4.442;2023-03-23T15:12:59;8.77;;;2.35;;
25922;SDS011;13725;51.170;4.442;2023-03-23T15:15:26;12.00;;;2.55;;
25922;SDS011;13725;51.170;4.442;2023-03-23T15:17:57;8.40;;;2.75;;
25922;SDS011;13725;51.170;4.442;2023-03-23T15:20:31;9.55;;;2.35;;
25922;SDS011;13725;51.170;4.442;2023-03-23T15:23:21;10.18;;;2.50;;
25922;SDS011;13725;51.170;4.442;2023-03-23T15:25:52;13.07;;;4.13;;
25922;SDS011;13725;51.170;4.442;2023-03-23T15:28:30;11.80;;;1.83;;
25922;SDS011;13725;51.170;4.442;2023-03-23T15:30:59;14.93;;;2.47;;
25922;SDS011;13725;51.170;4.442;2023-03-23T15:33:27;9.52;;;2.17;;
25922;SDS011;13725;51.170;4.442;2023-03-23T15:36:04;15.32;;;2.30;;
25922;SDS011;13725;51.170;4.442;2023-03-23T15:38:33;12.57;;;2.38;;
25922;SDS011;13725;51.170;4.442;2023-03-23T15:41:02;11.18;;;2.10;;
25922;SDS011;13725;51.170;4.442;2023-03-23T15:43:32;8.43;;;2.35;;
25922;SDS011;13725;51.170;4.442;2023-03-23T15:46:00;11.98;;;2.22;;
25922;SDS011;13725;51.170;4.442;2023-03-23T15:51:39;15.90;;;2.80;;
25922;SDS011;13725;51.170;4.442;2023-03-23T15:54:07;13.27;;;2.45;;
25922;SDS011;13725;51.170;4.442;2023-03-23T15:56:38;11.65;;;2.70;;
25922;SDS011;13725;51.170;4.442;2023-03-23T15:59:07;11.65;;;2.40;;
25922;SDS011;13725;51.170;4.442;2023-03-23T16:01:33;9.70;;;1.90;;
25922;SDS011;13725;51.170;4.442;2023-03-23T16:04:03;8.43;;;2.13;;
25922;SDS011;13725;51.170;4.442;2023-03-23T16:06:31;17.83;;;2.70;;
25922;SDS011;13725;51.170;4.442;2023-03-23T16:08:58;10.13;;;2.10;;
25922;SDS011;13725;51.170;4.442;2023-03-23T16:11:26;15.13;;;3.42;;
25922;SDS011;13725;51.170;4.442;2023-03-23T16:13:53;12.80;;;3.20;;
25922;SDS011;13725;51.170;4.442;2023-03-23T16:18:47;9.50;;;1.95;;
25922;SDS011;13725;51.170;4.442;2023-03-23T16:21:13;11.68;;;2.58;;
25922;SDS011;13725;51.170;4.442;2023-03-23T16:23:39;15.68;;;2.70;;
25922;SDS011;13725;51.170;4.442;2023-03-23T16:26:08;12.75;;;2.33;;
25922;SDS011;13725;51.170;4.442;2023-03-23T16:28:35;14.32;;;2.83;;
25922;SDS011;13725;51.170;4.442;2023-03-23T16:31:01;12.65;;;2.60;;
25922;SDS011;13725;51.170;4.442;2023-03-23T16:33:26;12.95;;;3.97;;
25922;SDS011;13725;51.170;4.442;2023-03-23T16:35:52;10.20;;;2.40;;
25922;SDS011;13725;51.170;4.442;2023-03-23T16:38:18;11.13;;;2.88;;
25922;SDS011;13725;51.170;4.442;2023-03-23T16:40:44;10.05;;;2.70;;
25922;SDS011;13725;51.170;4.442;2023-03-23T16:43:11;17.50;;;3.00;;
25922;SDS011;13725;51.170;4.442;2023-03-23T16:45:38;9.95;;;2.40;;
25922;SDS011;13725;51.170;4.442;2023-03-23T16:48:05;16.10;;;3.63;;
25922;SDS011;13725;51.170;4.442;2023-03-23T16:50:32;17.65;;;4.90;;
25922;SDS011;13725;51.170;4.442;2023-03-23T16:52:58;10.13;;;2.60;;
25922;SDS011;13725;51.170;4.442;2023-03-23T16:55:25;17.88;;;3.28;;
25922;SDS011;13725;51.170;4.442;2023-03-23T16:57:51;16.13;;;2.92;;
25922;SDS011;13725;51.170;4.442;2023-03-23T17:00:18;21.58;;;3.15;;
25922;SDS011;13725;51.170;4.442;2023-03-23T17:02:44;13.05;;;2.72;;
25922;SDS011;13725;51.170;4.442;2023-03-23T17:05:11;14.93;;;2.63;;
25922;SDS011;13725;51.170;4.442;2023-03-23T17:07:38;22.50;;;3.72;;
25922;SDS011;13725;51.170;4.442;2023-03-23T17:10:05;6.35;;;1.80;;
25922;SDS011;13725;51.170;4.442;2023-03-23T17:12:33;11.60;;;2.45;;
25922;SDS011;13725;51.170;4.442;2023-03-23T17:15:00;10.60;;;1.90;;
25922;SDS011;13725;51.170;4.442;2023-03-23T17:17:27;9.50;;;2.17;;